Terminal Aerodrome Forecast
Issued by NWS

Home | Current Version | Previous Version | Text Only | Print | Product List | Glossary On
Versions: 1 2 3 4 5 6 7 8 9 10 11 12 13 14 15
000
FTUS44 KCRP 300500
TAFLRD
TAF
KLRD 300532Z 3006/3106 10008KT P6SM SCT025 SCT250
     FM301000 09008KT P6SM SCT015
      TEMPO 3010/3014 BKN015
     FM301500 13005KT P6SM SCT025
     FM301900 15009KT P6SM SCT060=

USA.gov is the U.S. government's official web portal to all federal, state and local government web resources and services.